sensor_id;sensor_type;location;lat;lon;timestamp;P1;durP1;ratioP1;P2;durP2;ratioP2
66886;SDS011;53798;51.680;5.976;2022-07-29T00:01:17;9.75;;;1.10;;
66886;SDS011;53798;51.680;5.976;2022-07-29T00:03:45;2.42;;;0.80;;
66886;SDS011;53798;51.680;5.976;2022-07-29T00:06:13;2.25;;;0.80;;
66886;SDS011;53798;51.680;5.976;2022-07-29T00:08:41;3.42;;;0.70;;
66886;SDS011;53798;51.680;5.976;2022-07-29T00:11:08;2.97;;;0.90;;
66886;SDS011;53798;51.680;5.976;2022-07-29T00:13:35;3.45;;;0.85;;
66886;SDS011;53798;51.680;5.976;2022-07-29T00:16:06;3.22;;;0.90;;
66886;SDS011;53798;51.680;5.976;2022-07-29T00:18:33;6.53;;;1.10;;
66886;SDS011;53798;51.680;5.976;2022-07-29T00:21:00;2.38;;;1.00;;
66886;SDS011;53798;51.680;5.976;2022-07-29T00:23:28;4.57;;;0.90;;
66886;SDS011;53798;51.680;5.976;2022-07-29T00:25:57;3.00;;;0.80;;
66886;SDS011;53798;51.680;5.976;2022-07-29T00:28:24;4.38;;;0.93;;
66886;SDS011;53798;51.680;5.976;2022-07-29T00:30:51;3.72;;;1.00;;
66886;SDS011;53798;51.680;5.976;2022-07-29T00:33:18;2.17;;;0.98;;
66886;SDS011;53798;51.680;5.976;2022-07-29T00:35:45;2.95;;;0.82;;
66886;SDS011;53798;51.680;5.976;2022-07-29T00:38:15;3.25;;;0.95;;
66886;SDS011;53798;51.680;5.976;2022-07-29T00:40:46;2.10;;;0.70;;
66886;SDS011;53798;51.680;5.976;2022-07-29T00:43:15;2.40;;;1.13;;
66886;SDS011;53798;51.680;5.976;2022-07-29T00:45:43;4.07;;;0.80;;
66886;SDS011;53798;51.680;5.976;2022-07-29T00:48:11;6.18;;;1.13;;
66886;SDS011;53798;51.680;5.976;2022-07-29T00:50:38;2.20;;;0.80;;
66886;SDS011;53798;51.680;5.976;2022-07-29T00:53:06;2.72;;;0.88;;
66886;SDS011;53798;51.680;5.976;2022-07-29T00:55:34;5.32;;;0.90;;
66886;SDS011;53798;51.680;5.976;2022-07-29T00:58:02;4.95;;;0.93;;
66886;SDS011;53798;51.680;5.976;2022-07-29T01:00:30;2.95;;;1.10;;
66886;SDS011;53798;51.680;5.976;2022-07-29T01:02:58;4.75;;;0.90;;
66886;SDS011;53798;51.680;5.976;2022-07-29T01:05:25;2.33;;;0.85;;
66886;SDS011;53798;51.680;5.976;2022-07-29T01:08:15;4.50;;;0.90;;
66886;SDS011;53798;51.680;5.976;2022-07-29T01:10:43;3.50;;;1.10;;
66886;SDS011;53798;51.680;5.976;2022-07-29T01:13:14;3.95;;;1.10;;
66886;SDS011;53798;51.680;5.976;2022-07-29T01:15:54;2.67;;;1.20;;
66886;SDS011;53798;51.680;5.976;2022-07-29T01:18:34;9.52;;;1.30;;
66886;SDS011;53798;51.680;5.976;2022-07-29T01:21:24;5.90;;;1.10;;
66886;SDS011;53798;51.680;5.976;2022-07-29T01:24:24;6.80;;;1.38;;
66886;SDS011;53798;51.680;5.976;2022-07-29T01:27:04;2.40;;;1.10;;
66886;SDS011;53798;51.680;5.976;2022-07-29T01:30:06;13.95;;;1.48;;
66886;SDS011;53798;51.680;5.976;2022-07-29T01:32:35;6.72;;;1.98;;
66886;SDS011;53798;51.680;5.976;2022-07-29T01:35:16;10.07;;;2.17;;
66886;SDS011;53798;51.680;5.976;2022-07-29T01:37:52;5.97;;;1.70;;
66886;SDS011;53798;51.680;5.976;2022-07-29T01:40:28;5.82;;;1.70;;
66886;SDS011;53798;51.680;5.976;2022-07-29T01:43:11;7.95;;;2.08;;
66886;SDS011;53798;51.680;5.976;2022-07-29T01:45:48;13.82;;;1.85;;
66886;SDS011;53798;51.680;5.976;2022-07-29T01:48:23;6.45;;;2.20;;
66886;SDS011;53798;51.680;5.976;2022-07-29T01:51:04;5.07;;;2.55;;
66886;SDS011;53798;51.680;5.976;2022-07-29T01:53:44;8.10;;;2.40;;
66886;SDS011;53798;51.680;5.976;2022-07-29T01:56:21;11.25;;;2.40;;
66886;SDS011;53798;51.680;5.976;2022-07-29T01:58:52;3.97;;;2.78;;
66886;SDS011;53798;51.680;5.976;2022-07-29T02:01:23;5.78;;;2.42;;
66886;SDS011;53798;51.680;5.976;2022-07-29T02:03:54;5.13;;;2.45;;
66886;SDS011;53798;51.680;5.976;2022-07-29T02:06:23;3.80;;;2.47;;
66886;SDS011;53798;51.680;5.976;2022-07-29T02:08:54;5.80;;;2.67;;
66886;SDS011;53798;51.680;5.976;2022-07-29T02:11:25;6.28;;;2.70;;
66886;SDS011;53798;51.680;5.976;2022-07-29T02:13:53;5.55;;;2.63;;
66886;SDS011;53798;51.680;5.976;2022-07-29T02:16:24;5.82;;;2.90;;
66886;SDS011;53798;51.680;5.976;2022-07-29T02:18:57;6.22;;;2.67;;
66886;SDS011;53798;51.680;5.976;2022-07-29T02:21:27;5.50;;;3.00;;
66886;SDS011;53798;51.680;5.976;2022-07-29T02:23:59;5.88;;;2.90;;
66886;SDS011;53798;51.680;5.976;2022-07-29T02:26:29;5.55;;;2.60;;
66886;SDS011;53798;51.680;5.976;2022-07-29T02:29:00;5.10;;;2.45;;
66886;SDS011;53798;51.680;5.976;2022-07-29T02:31:32;4.72;;;2.50;;
66886;SDS011;53798;51.680;5.976;2022-07-29T02:34:03;5.82;;;2.40;;
66886;SDS011;53798;51.680;5.976;2022-07-29T02:36:35;5.32;;;2.30;;
66886;SDS011;53798;51.680;5.976;2022-07-29T02:39:03;5.57;;;2.45;;
66886;SDS011;53798;51.680;5.976;2022-07-29T02:41:52;5.45;;;2.50;;
66886;SDS011;53798;51.680;5.976;2022-07-29T02:44:28;3.92;;;3.00;;
66886;SDS011;53798;51.680;5.976;2022-07-29T02:50:04;4.15;;;2.67;;
66886;SDS011;53798;51.680;5.976;2022-07-29T02:52:47;5.63;;;2.50;;
66886;SDS011;53798;51.680;5.976;2022-07-29T02:55:33;4.68;;;2.80;;
66886;SDS011;53798;51.680;5.976;2022-07-29T02:58:19;4.80;;;2.90;;
66886;SDS011;53798;51.680;5.976;2022-07-29T03:00:55;5.80;;;3.05;;
66886;SDS011;53798;51.680;5.976;2022-07-29T03:03:28;6.75;;;3.00;;
66886;SDS011;53798;51.680;5.976;2022-07-29T03:06:02;8.30;;;3.03;;
66886;SDS011;53798;51.680;5.976;2022-07-29T03:08:31;6.47;;;3.60;;
66886;SDS011;53798;51.680;5.976;2022-07-29T03:11:01;7.38;;;3.20;;
66886;SDS011;53798;51.680;5.976;2022-07-29T03:13:30;5.68;;;2.80;;
66886;SDS011;53798;51.680;5.976;2022-07-29T03:15:58;4.38;;;3.20;;
66886;SDS011;53798;51.680;5.976;2022-07-29T03:18:27;6.60;;;2.95;;
66886;SDS011;53798;51.680;5.976;2022-07-29T03:20:54;4.85;;;3.17;;
66886;SDS011;53798;51.680;5.976;2022-07-29T03:23:22;4.95;;;3.13;;
66886;SDS011;53798;51.680;5.976;2022-07-29T03:25:50;4.93;;;3.13;;
66886;SDS011;53798;51.680;5.976;2022-07-29T03:28:18;6.53;;;3.20;;
66886;SDS011;53798;51.680;5.976;2022-07-29T03:30:47;6.68;;;3.08;;
66886;SDS011;53798;51.680;5.976;2022-07-29T03:33:16;3.63;;;3.20;;
66886;SDS011;53798;51.680;5.976;2022-07-29T03:35:43;6.80;;;3.53;;
66886;SDS011;53798;51.680;5.976;2022-07-29T03:38:10;5.15;;;3.28;;
66886;SDS011;53798;51.680;5.976;2022-07-29T03:40:40;6.63;;;3.38;;
66886;SDS011;53798;51.680;5.976;2022-07-29T03:43:16;7.68;;;3.38;;
66886;SDS011;53798;51.680;5.976;2022-07-29T03:45:47;4.55;;;3.60;;
66886;SDS011;53798;51.680;5.976;2022-07-29T03:48:21;8.45;;;3.30;;
66886;SDS011;53798;51.680;5.976;2022-07-29T03:50:53;6.60;;;3.75;;
66886;SDS011;53798;51.680;5.976;2022-07-29T03:53:20;4.53;;;3.33;;
66886;SDS011;53798;51.680;5.976;2022-07-29T03:55:48;5.35;;;3.50;;
66886;SDS011;53798;51.680;5.976;2022-07-29T03:58:21;5.10;;;3.85;;
66886;SDS011;53798;51.680;5.976;2022-07-29T04:00:53;5.30;;;3.22;;
66886;SDS011;53798;51.680;5.976;2022-07-29T04:03:22;7.40;;;3.85;;
66886;SDS011;53798;51.680;5.976;2022-07-29T04:06:02;6.35;;;3.22;;
66886;SDS011;53798;51.680;5.976;2022-07-29T04:08:33;5.72;;;3.33;;
66886;SDS011;53798;51.680;5.976;2022-07-29T04:11:01;4.93;;;3.40;;
66886;SDS011;53798;51.680;5.976;2022-07-29T04:13:29;5.95;;;3.90;;
66886;SDS011;53798;51.680;5.976;2022-07-29T04:15:58;8.15;;;4.00;;
66886;SDS011;53798;51.680;5.976;2022-07-29T04:18:26;7.32;;;4.57;;
66886;SDS011;53798;51.680;5.976;2022-07-29T04:20:53;5.10;;;3.83;;
66886;SDS011;53798;51.680;5.976;2022-07-29T04:23:20;5.45;;;3.55;;
66886;SDS011;53798;51.680;5.976;2022-07-29T04:25:47;7.68;;;4.00;;
66886;SDS011;53798;51.680;5.976;2022-07-29T04:28:14;10.73;;;4.47;;
66886;SDS011;53798;51.680;5.976;2022-07-29T04:30:43;5.35;;;3.78;;
66886;SDS011;53798;51.680;5.976;2022-07-29T04:33:12;5.60;;;3.70;;
66886;SDS011;53798;51.680;5.976;2022-07-29T04:35:39;5.78;;;3.90;;
66886;SDS011;53798;51.680;5.976;2022-07-29T04:38:16;5.03;;;3.83;;
66886;SDS011;53798;51.680;5.976;2022-07-29T04:40:43;5.03;;;3.42;;
66886;SDS011;53798;51.680;5.976;2022-07-29T04:43:10;5.43;;;3.90;;
66886;SDS011;53798;51.680;5.976;2022-07-29T04:45:41;11.00;;;4.65;;
66886;SDS011;53798;51.680;5.976;2022-07-29T04:48:08;7.68;;;4.32;;
66886;SDS011;53798;51.680;5.976;2022-07-29T04:50:39;8.98;;;3.78;;
66886;SDS011;53798;51.680;5.976;2022-07-29T04:53:07;8.65;;;3.67;;
66886;SDS011;53798;51.680;5.976;2022-07-29T04:55:34;7.47;;;4.18;;
66886;SDS011;53798;51.680;5.976;2022-07-29T04:58:04;7.03;;;3.60;;
66886;SDS011;53798;51.680;5.976;2022-07-29T05:00:32;5.93;;;3.58;;
66886;SDS011;53798;51.680;5.976;2022-07-29T05:02:59;6.20;;;3.78;;
66886;SDS011;53798;51.680;5.976;2022-07-29T05:05:26;8.48;;;3.80;;
66886;SDS011;53798;51.680;5.976;2022-07-29T05:07:53;6.22;;;3.63;;
66886;SDS011;53798;51.680;5.976;2022-07-29T05:10:22;5.10;;;3.92;;
66886;SDS011;53798;51.680;5.976;2022-07-29T05:12:49;4.95;;;3.60;;
66886;SDS011;53798;51.680;5.976;2022-07-29T05:15:16;5.25;;;3.83;;
66886;SDS011;53798;51.680;5.976;2022-07-29T05:17:44;5.53;;;3.65;;
66886;SDS011;53798;51.680;5.976;2022-07-29T05:20:11;5.50;;;3.25;;
66886;SDS011;53798;51.680;5.976;2022-07-29T05:22:38;5.70;;;3.45;;
66886;SDS011;53798;51.680;5.976;2022-07-29T05:25:05;7.95;;;4.00;;
66886;SDS011;53798;51.680;5.976;2022-07-29T05:27:36;5.20;;;3.65;;
66886;SDS011;53798;51.680;5.976;2022-07-29T05:30:03;5.85;;;3.67;;
66886;SDS011;53798;51.680;5.976;2022-07-29T05:32:31;4.65;;;3.30;;
66886;SDS011;53798;51.680;5.976;2022-07-29T05:34:58;5.70;;;3.83;;
66886;SDS011;53798;51.680;5.976;2022-07-29T05:37:25;7.72;;;4.00;;
66886;SDS011;53798;51.680;5.976;2022-07-29T05:39:52;5.43;;;3.85;;
66886;SDS011;53798;51.680;5.976;2022-07-29T05:42:24;6.35;;;4.30;;
66886;SDS011;53798;51.680;5.976;2022-07-29T05:44:52;8.38;;;4.28;;
66886;SDS011;53798;51.680;5.976;2022-07-29T05:47:20;7.07;;;4.05;;
66886;SDS011;53798;51.680;5.976;2022-07-29T05:49:49;5.43;;;3.60;;
66886;SDS011;53798;51.680;5.976;2022-07-29T05:52:17;5.40;;;3.83;;
66886;SDS011;53798;51.680;5.976;2022-07-29T05:54:47;8.13;;;4.43;;
66886;SDS011;53798;51.680;5.976;2022-07-29T05:57:15;5.05;;;3.85;;
66886;SDS011;53798;51.680;5.976;2022-07-29T05:59:47;6.38;;;3.83;;
66886;SDS011;53798;51.680;5.976;2022-07-29T06:02:16;9.35;;;4.32;;
66886;SDS011;53798;51.680;5.976;2022-07-29T06:04:44;8.70;;;4.57;;
66886;SDS011;53798;51.680;5.976;2022-07-29T06:07:11;7.18;;;4.00;;
66886;SDS011;53798;51.680;5.976;2022-07-29T06:09:38;5.07;;;3.67;;
66886;SDS011;53798;51.680;5.976;2022-07-29T06:12:05;5.88;;;3.58;;
66886;SDS011;53798;51.680;5.976;2022-07-29T06:14:32;12.23;;;4.50;;
66886;SDS011;53798;51.680;5.976;2022-07-29T06:16:59;10.13;;;4.57;;
66886;SDS011;53798;51.680;5.976;2022-07-29T06:19:26;7.82;;;4.00;;
66886;SDS011;53798;51.680;5.976;2022-07-29T06:21:55;4.75;;;4.05;;
66886;SDS011;53798;51.680;5.976;2022-07-29T06:24:23;8.05;;;4.22;;
66886;SDS011;53798;51.680;5.976;2022-07-29T06:26:50;6.65;;;4.05;;
66886;SDS011;53798;51.680;5.976;2022-07-29T06:29:17;8.18;;;3.72;;
66886;SDS011;53798;51.680;5.976;2022-07-29T06:31:44;8.40;;;4.13;;
66886;SDS011;53798;51.680;5.976;2022-07-29T06:34:11;7.57;;;4.50;;
66886;SDS011;53798;51.680;5.976;2022-07-29T06:36:39;7.88;;;4.50;;
66886;SDS011;53798;51.680;5.976;2022-07-29T06:39:07;6.13;;;4.45;;
66886;SDS011;53798;51.680;5.976;2022-07-29T06:41:37;8.07;;;4.15;;
66886;SDS011;53798;51.680;5.976;2022-07-29T06:44:08;10.20;;;3.83;;
66886;SDS011;53798;51.680;5.976;2022-07-29T06:46:37;9.85;;;4.35;;
66886;SDS011;53798;51.680;5.976;2022-07-29T06:49:04;6.43;;;3.58;;
66886;SDS011;53798;51.680;5.976;2022-07-29T06:51:31;6.80;;;3.80;;
66886;SDS011;53798;51.680;5.976;2022-07-29T06:53:59;10.77;;;4.63;;
66886;SDS011;53798;51.680;5.976;2022-07-29T06:56:33;10.73;;;4.47;;
66886;SDS011;53798;51.680;5.976;2022-07-29T06:59:07;5.38;;;4.15;;
66886;SDS011;53798;51.680;5.976;2022-07-29T07:01:40;7.68;;;4.75;;
66886;SDS011;53798;51.680;5.976;2022-07-29T07:04:11;7.15;;;4.25;;
66886;SDS011;53798;51.680;5.976;2022-07-29T07:06:38;6.45;;;4.10;;
66886;SDS011;53798;51.680;5.976;2022-07-29T07:09:06;6.80;;;4.22;;
66886;SDS011;53798;51.680;5.976;2022-07-29T07:11:33;8.80;;;4.72;;
66886;SDS011;53798;51.680;5.976;2022-07-29T07:14:00;6.55;;;5.47;;
66886;SDS011;53798;51.680;5.976;2022-07-29T07:16:30;5.75;;;4.40;;
66886;SDS011;53798;51.680;5.976;2022-07-29T07:18:58;10.57;;;5.60;;
66886;SDS011;53798;51.680;5.976;2022-07-29T07:21:26;8.18;;;5.30;;
66886;SDS011;53798;51.680;5.976;2022-07-29T07:23:56;6.72;;;5.38;;
66886;SDS011;53798;51.680;5.976;2022-07-29T07:26:24;7.22;;;5.18;;
66886;SDS011;53798;51.680;5.976;2022-07-29T07:28:52;7.57;;;5.03;;
66886;SDS011;53798;51.680;5.976;2022-07-29T07:31:19;9.93;;;5.65;;
66886;SDS011;53798;51.680;5.976;2022-07-29T07:33:47;6.90;;;4.80;;
66886;SDS011;53798;51.680;5.976;2022-07-29T07:36:14;6.85;;;4.68;;
66886;SDS011;53798;51.680;5.976;2022-07-29T07:38:41;9.23;;;5.07;;
66886;SDS011;53798;51.680;5.976;2022-07-29T07:41:08;7.45;;;4.50;;
66886;SDS011;53798;51.680;5.976;2022-07-29T07:43:35;8.00;;;5.03;;
66886;SDS011;53798;51.680;5.976;2022-07-29T07:46:02;6.63;;;5.00;;
66886;SDS011;53798;51.680;5.976;2022-07-29T07:48:29;8.90;;;4.85;;
66886;SDS011;53798;51.680;5.976;2022-07-29T07:50:56;6.28;;;4.60;;
66886;SDS011;53798;51.680;5.976;2022-07-29T07:53:24;7.35;;;4.50;;
66886;SDS011;53798;51.680;5.976;2022-07-29T07:55:50;8.73;;;4.63;;
66886;SDS011;53798;51.680;5.976;2022-07-29T07:58:38;8.20;;;5.05;;
66886;SDS011;53798;51.680;5.976;2022-07-29T08:01:05;7.40;;;4.60;;
66886;SDS011;53798;51.680;5.976;2022-07-29T08:03:33;10.13;;;4.80;;
66886;SDS011;53798;51.680;5.976;2022-07-29T08:06:00;8.23;;;4.68;;
66886;SDS011;53798;51.680;5.976;2022-07-29T08:08:28;6.45;;;4.60;;
66886;SDS011;53798;51.680;5.976;2022-07-29T08:10:55;8.32;;;4.68;;
66886;SDS011;53798;51.680;5.976;2022-07-29T08:13:23;9.93;;;4.60;;
66886;SDS011;53798;51.680;5.976;2022-07-29T08:15:54;7.53;;;5.07;;
66886;SDS011;53798;51.680;5.976;2022-07-29T08:18:30;8.13;;;4.57;;
66886;SDS011;53798;51.680;5.976;2022-07-29T08:20:58;9.52;;;4.15;;
66886;SDS011;53798;51.680;5.976;2022-07-29T08:23:25;5.88;;;4.10;;
66886;SDS011;53798;51.680;5.976;2022-07-29T08:26:13;5.90;;;4.18;;
66886;SDS011;53798;51.680;5.976;2022-07-29T08:28:41;7.07;;;4.68;;
66886;SDS011;53798;51.680;5.976;2022-07-29T08:31:16;7.28;;;4.25;;
66886;SDS011;53798;51.680;5.976;2022-07-29T08:33:43;6.07;;;4.05;;
66886;SDS011;53798;51.680;5.976;2022-07-29T08:36:11;5.45;;;3.10;;
66886;SDS011;53798;51.680;5.976;2022-07-29T08:38:39;8.63;;;3.92;;
66886;SDS011;53798;51.680;5.976;2022-07-29T08:41:09;6.70;;;3.65;;
66886;SDS011;53798;51.680;5.976;2022-07-29T08:43:36;5.07;;;3.08;;
66886;SDS011;53798;51.680;5.976;2022-07-29T08:46:05;5.30;;;3.38;;
66886;SDS011;53798;51.680;5.976;2022-07-29T08:48:32;6.65;;;3.47;;
66886;SDS011;53798;51.680;5.976;2022-07-29T08:51:00;4.88;;;3.70;;
66886;SDS011;53798;51.680;5.976;2022-07-29T08:53:30;7.35;;;3.65;;
66886;SDS011;53798;51.680;5.976;2022-07-29T08:55:58;5.80;;;3.42;;
66886;SDS011;53798;51.680;5.976;2022-07-29T08:58:26;9.25;;;3.90;;
66886;SDS011;53798;51.680;5.976;2022-07-29T09:01:03;8.15;;;3.58;;
66886;SDS011;53798;51.680;5.976;2022-07-29T09:03:34;8.02;;;3.53;;
66886;SDS011;53798;51.680;5.976;2022-07-29T09:06:03;6.47;;;3.40;;
66886;SDS011;53798;51.680;5.976;2022-07-29T09:08:34;5.32;;;3.38;;
66886;SDS011;53798;51.680;5.976;2022-07-29T09:11:01;4.93;;;3.08;;
66886;SDS011;53798;51.680;5.976;2022-07-29T09:13:33;7.93;;;3.20;;
66886;SDS011;53798;51.680;5.976;2022-07-29T09:16:06;4.65;;;3.38;;
66886;SDS011;53798;51.680;5.976;2022-07-29T09:18:42;5.30;;;3.20;;
66886;SDS011;53798;51.680;5.976;2022-07-29T09:21:12;6.85;;;3.38;;
66886;SDS011;53798;51.680;5.976;2022-07-29T09:26:41;7.28;;;3.00;;
66886;SDS011;53798;51.680;5.976;2022-07-29T09:29:13;5.78;;;3.20;;
66886;SDS011;53798;51.680;5.976;2022-07-29T09:31:51;3.92;;;3.00;;
66886;SDS011;53798;51.680;5.976;2022-07-29T09:36:53;8.02;;;2.83;;
66886;SDS011;53798;51.680;5.976;2022-07-29T09:39:41;7.15;;;3.22;;
66886;SDS011;53798;51.680;5.976;2022-07-29T09:42:13;8.50;;;3.17;;
66886;SDS011;53798;51.680;5.976;2022-07-29T09:44:46;7.95;;;3.42;;
66886;SDS011;53798;51.680;5.976;2022-07-29T09:49:52;5.03;;;3.00;;
66886;SDS011;53798;51.680;5.976;2022-07-29T09:52:27;7.47;;;3.42;;
66886;SDS011;53798;51.680;5.976;2022-07-29T09:55:09;6.28;;;3.50;;
66886;SDS011;53798;51.680;5.976;2022-07-29T09:58:35;3.92;;;3.13;;
66886;SDS011;53798;51.680;5.976;2022-07-29T10:01:14;5.32;;;3.50;;
66886;SDS011;53798;51.680;5.976;2022-07-29T10:04:03;3.80;;;3.22;;
66886;SDS011;53798;51.680;5.976;2022-07-29T10:06:30;7.57;;;3.22;;
66886;SDS011;53798;51.680;5.976;2022-07-29T10:11:35;5.55;;;3.33;;
66886;SDS011;53798;51.680;5.976;2022-07-29T10:14:15;6.32;;;3.00;;
66886;SDS011;53798;51.680;5.976;2022-07-29T10:16:50;6.88;;;2.83;;
66886;SDS011;53798;51.680;5.976;2022-07-29T10:19:22;7.15;;;3.08;;
66886;SDS011;53798;51.680;5.976;2022-07-29T10:21:51;7.38;;;2.72;;
66886;SDS011;53798;51.680;5.976;2022-07-29T10:24:26;3.60;;;2.65;;
66886;SDS011;53798;51.680;5.976;2022-07-29T10:26:56;3.67;;;2.80;;
66886;SDS011;53798;51.680;5.976;2022-07-29T10:29:24;3.70;;;2.97;;
66886;SDS011;53798;51.680;5.976;2022-07-29T10:32:15;3.17;;;2.60;;
66886;SDS011;53798;51.680;5.976;2022-07-29T10:34:53;4.57;;;2.70;;
66886;SDS011;53798;51.680;5.976;2022-07-29T10:43:45;5.22;;;2.50;;
66886;SDS011;53798;51.680;5.976;2022-07-29T10:46:17;6.32;;;2.75;;
66886;SDS011;53798;51.680;5.976;2022-07-29T10:49:05;7.07;;;2.50;;
66886;SDS011;53798;51.680;5.976;2022-07-29T10:54:38;5.43;;;2.30;;
66886;SDS011;53798;51.680;5.976;2022-07-29T10:57:23;5.03;;;2.50;;
66886;SDS011;53798;51.680;5.976;2022-07-29T11:00:25;6.13;;;2.47;;
66886;SDS011;53798;51.680;5.976;2022-07-29T11:02:55;3.25;;;2.20;;
66886;SDS011;53798;51.680;5.976;2022-07-29T11:05:25;5.72;;;2.85;;
66886;SDS011;53798;51.680;5.976;2022-07-29T11:10:53;8.00;;;2.25;;
66886;SDS011;53798;51.680;5.976;2022-07-29T11:13:49;6.95;;;2.55;;
66886;SDS011;53798;51.680;5.976;2022-07-29T11:16:19;5.47;;;2.58;;
66886;SDS011;53798;51.680;5.976;2022-07-29T11:21:37;6.28;;;2.15;;
66886;SDS011;53798;51.680;5.976;2022-07-29T11:24:22;3.45;;;1.90;;
66886;SDS011;53798;51.680;5.976;2022-07-29T11:27:14;7.20;;;2.38;;
66886;SDS011;53798;51.680;5.976;2022-07-29T11:29:48;3.60;;;1.80;;
66886;SDS011;53798;51.680;5.976;2022-07-29T11:32:36;4.00;;;1.70;;
66886;SDS011;53798;51.680;5.976;2022-07-29T11:35:14;4.85;;;1.70;;
66886;SDS011;53798;51.680;5.976;2022-07-29T11:38:24;2.10;;;1.30;;
66886;SDS011;53798;51.680;5.976;2022-07-29T11:43:54;9.88;;;1.80;;
66886;SDS011;53798;51.680;5.976;2022-07-29T11:49:26;3.88;;;1.50;;
66886;SDS011;53798;51.680;5.976;2022-07-29T11:52:13;3.38;;;1.42;;
66886;SDS011;53798;51.680;5.976;2022-07-29T11:54:42;2.95;;;1.35;;
66886;SDS011;53798;51.680;5.976;2022-07-29T11:57:27;3.22;;;1.30;;
66886;SDS011;53798;51.680;5.976;2022-07-29T12:00:05;2.90;;;1.48;;
66886;SDS011;53798;51.680;5.976;2022-07-29T12:02:41;2.50;;;1.17;;
66886;SDS011;53798;51.680;5.976;2022-07-29T12:05:14;3.47;;;1.60;;
66886;SDS011;53798;51.680;5.976;2022-07-29T12:08:16;2.17;;;1.42;;
66886;SDS011;53798;51.680;5.976;2022-07-29T12:10:47;7.63;;;1.55;;
66886;SDS011;53798;51.680;5.976;2022-07-29T12:13:18;3.95;;;1.50;;
66886;SDS011;53798;51.680;5.976;2022-07-29T12:15:56;2.53;;;1.20;;
66886;SDS011;53798;51.680;5.976;2022-07-29T12:18:25;4.72;;;1.40;;
66886;SDS011;53798;51.680;5.976;2022-07-29T12:21:00;2.75;;;1.30;;
66886;SDS011;53798;51.680;5.976;2022-07-29T12:23:31;8.68;;;1.75;;
66886;SDS011;53798;51.680;5.976;2022-07-29T12:26:04;3.13;;;1.33;;
66886;SDS011;53798;51.680;5.976;2022-07-29T12:28:39;4.28;;;1.50;;
66886;SDS011;53798;51.680;5.976;2022-07-29T12:31:12;2.72;;;1.85;;
66886;SDS011;53798;51.680;5.976;2022-07-29T12:34:01;8.43;;;1.88;;
66886;SDS011;53798;51.680;5.976;2022-07-29T12:36:28;18.92;;;2.00;;
66886;SDS011;53798;51.680;5.976;2022-07-29T12:38:56;5.07;;;1.40;;
66886;SDS011;53798;51.680;5.976;2022-07-29T12:41:23;4.45;;;1.73;;
66886;SDS011;53798;51.680;5.976;2022-07-29T12:43:54;3.08;;;1.70;;
66886;SDS011;53798;51.680;5.976;2022-07-29T12:46:21;4.03;;;1.60;;
66886;SDS011;53798;51.680;5.976;2022-07-29T12:48:54;3.15;;;1.40;;
66886;SDS011;53798;51.680;5.976;2022-07-29T12:51:30;4.30;;;1.80;;
66886;SDS011;53798;51.680;5.976;2022-07-29T12:54:10;4.18;;;1.60;;
66886;SDS011;53798;51.680;5.976;2022-07-29T12:56:42;4.95;;;1.50;;
66886;SDS011;53798;51.680;5.976;2022-07-29T12:59:15;20.27;;;2.97;;
66886;SDS011;53798;51.680;5.976;2022-07-29T13:01:49;7.32;;;1.80;;
66886;SDS011;53798;51.680;5.976;2022-07-29T13:04:31;3.47;;;2.10;;
66886;SDS011;53798;51.680;5.976;2022-07-29T13:07:03;10.75;;;1.83;;
66886;SDS011;53798;51.680;5.976;2022-07-29T13:09:38;12.25;;;1.90;;
66886;SDS011;53798;51.680;5.976;2022-07-29T13:14:38;3.45;;;1.42;;
66886;SDS011;53798;51.680;5.976;2022-07-29T13:17:12;19.60;;;2.97;;
66886;SDS011;53798;51.680;5.976;2022-07-29T13:22:16;4.40;;;1.73;;
66886;SDS011;53798;51.680;5.976;2022-07-29T13:24:46;8.55;;;1.60;;
66886;SDS011;53798;51.680;5.976;2022-07-29T13:27:20;4.70;;;1.55;;
66886;SDS011;53798;51.680;5.976;2022-07-29T13:32:25;3.88;;;1.52;;
66886;SDS011;53798;51.680;5.976;2022-07-29T13:34:55;3.97;;;1.23;;
66886;SDS011;53798;51.680;5.976;2022-07-29T13:37:25;4.00;;;1.20;;
66886;SDS011;53798;51.680;5.976;2022-07-29T13:39:53;4.13;;;1.30;;
66886;SDS011;53798;51.680;5.976;2022-07-29T13:42:21;3.08;;;1.38;;
66886;SDS011;53798;51.680;5.976;2022-07-29T13:44:50;4.65;;;1.45;;
66886;SDS011;53798;51.680;5.976;2022-07-29T13:47:21;2.90;;;1.40;;
66886;SDS011;53798;51.680;5.976;2022-07-29T13:50:02;4.75;;;1.23;;
66886;SDS011;53798;51.680;5.976;2022-07-29T13:52:32;2.95;;;1.10;;
66886;SDS011;53798;51.680;5.976;2022-07-29T13:55:01;3.40;;;1.15;;
66886;SDS011;53798;51.680;5.976;2022-07-29T13:57:30;4.55;;;1.50;;
66886;SDS011;53798;51.680;5.976;2022-07-29T13:59:57;2.67;;;1.25;;
66886;SDS011;53798;51.680;5.976;2022-07-29T14:02:24;6.03;;;1.40;;
66886;SDS011;53798;51.680;5.976;2022-07-29T14:04:52;10.45;;;1.90;;
66886;SDS011;53798;51.680;5.976;2022-07-29T14:07:21;15.40;;;1.80;;
66886;SDS011;53798;51.680;5.976;2022-07-29T14:09:49;5.15;;;1.45;;
66886;SDS011;53798;51.680;5.976;2022-07-29T14:12:17;5.63;;;1.50;;
66886;SDS011;53798;51.680;5.976;2022-07-29T14:14:44;4.07;;;1.48;;
66886;SDS011;53798;51.680;5.976;2022-07-29T14:17:13;3.60;;;1.40;;
66886;SDS011;53798;51.680;5.976;2022-07-29T14:19:41;4.25;;;1.50;;
66886;SDS011;53798;51.680;5.976;2022-07-29T14:22:09;2.63;;;1.23;;
66886;SDS011;53798;51.680;5.976;2022-07-29T14:24:37;2.58;;;1.50;;
66886;SDS011;53798;51.680;5.976;2022-07-29T14:27:07;3.28;;;1.30;;
66886;SDS011;53798;51.680;5.976;2022-07-29T14:29:34;3.15;;;1.50;;
66886;SDS011;53798;51.680;5.976;2022-07-29T14:32:06;2.03;;;1.17;;
66886;SDS011;53798;51.680;5.976;2022-07-29T14:34:35;4.07;;;1.65;;
66886;SDS011;53798;51.680;5.976;2022-07-29T14:37:03;4.45;;;1.63;;
66886;SDS011;53798;51.680;5.976;2022-07-29T14:39:33;5.63;;;1.50;;
66886;SDS011;53798;51.680;5.976;2022-07-29T14:42:09;6.82;;;1.75;;
66886;SDS011;53798;51.680;5.976;2022-07-29T14:44:39;4.35;;;1.40;;
66886;SDS011;53798;51.680;5.976;2022-07-29T14:47:08;4.43;;;1.30;;
66886;SDS011;53798;51.680;5.976;2022-07-29T14:49:35;3.08;;;1.48;;
66886;SDS011;53798;51.680;5.976;2022-07-29T14:52:04;4.38;;;1.40;;
66886;SDS011;53798;51.680;5.976;2022-07-29T14:54:31;3.10;;;1.60;;
66886;SDS011;53798;51.680;5.976;2022-07-29T14:56:59;3.22;;;1.40;;
66886;SDS011;53798;51.680;5.976;2022-07-29T14:59:26;2.28;;;1.20;;
66886;SDS011;53798;51.680;5.976;2022-07-29T15:01:53;2.08;;;1.10;;
66886;SDS011;53798;51.680;5.976;2022-07-29T15:04:20;6.07;;;1.42;;
66886;SDS011;53798;51.680;5.976;2022-07-29T15:06:48;2.85;;;1.20;;
66886;SDS011;53798;51.680;5.976;2022-07-29T15:09:15;4.93;;;1.33;;
66886;SDS011;53798;51.680;5.976;2022-07-29T15:11:42;3.45;;;1.70;;
66886;SDS011;53798;51.680;5.976;2022-07-29T15:14:09;3.25;;;1.30;;
66886;SDS011;53798;51.680;5.976;2022-07-29T15:16:37;4.53;;;1.60;;
66886;SDS011;53798;51.680;5.976;2022-07-29T15:19:09;3.03;;;1.35;;
66886;SDS011;53798;51.680;5.976;2022-07-29T15:21:37;2.35;;;1.15;;
66886;SDS011;53798;51.680;5.976;2022-07-29T15:24:16;3.45;;;1.30;;
66886;SDS011;53798;51.680;5.976;2022-07-29T15:26:44;3.15;;;1.38;;
66886;SDS011;53798;51.680;5.976;2022-07-29T15:29:13;2.45;;;1.10;;
66886;SDS011;53798;51.680;5.976;2022-07-29T15:31:42;2.60;;;1.33;;
66886;SDS011;53798;51.680;5.976;2022-07-29T15:34:10;7.88;;;1.42;;
66886;SDS011;53798;51.680;5.976;2022-07-29T15:36:37;4.30;;;1.40;;
66886;SDS011;53798;51.680;5.976;2022-07-29T15:39:20;3.40;;;1.25;;
66886;SDS011;53798;51.680;5.976;2022-07-29T15:41:49;3.10;;;1.17;;
66886;SDS011;53798;51.680;5.976;2022-07-29T15:44:17;2.58;;;1.05;;
66886;SDS011;53798;51.680;5.976;2022-07-29T15:46:46;2.97;;;1.10;;
66886;SDS011;53798;51.680;5.976;2022-07-29T15:52:15;3.25;;;1.20;;
66886;SDS011;53798;51.680;5.976;2022-07-29T15:54:55;2.67;;;1.20;;
66886;SDS011;53798;51.680;5.976;2022-07-29T15:57:23;8.30;;;1.42;;
66886;SDS011;53798;51.680;5.976;2022-07-29T15:59:51;2.95;;;1.20;;